Time;durP1;ratioP1;P1;durP2;ratioP2;P2;SDS_P1;SDS_P2;PMS_P1;PMS_P2;Temp;Humidity;BMP_temperature;BMP_pressure;BME280_temperature;BME280_humidity;BME280_pressure;Samples;Min_cycle;Max_cycle;Signal;HPM_P1;HPM_P2
2023/03/04 00:02:11;;;;;;;43.92;19.40;;;;;;;-0.54;88.43;99936.69;1758848;80;27323;-48
2023/03/04 00:04:38;;;;;;;43.02;17.82;;;;;;;-0.52;88.66;99943.09;1793254;79;25417;-49
2023/03/04 00:07:04;;;;;;;41.45;17.80;;;;;;;-0.53;88.65;99948.12;1724335;81;27423;-49
2023/03/04 00:09:31;;;;;;;38.92;15.50;;;;;;;-0.51;88.42;99949.50;1763794;80;27371;-49
2023/03/04 00:11:57;;;;;;;40.88;16.77;;;;;;;-0.52;88.28;99940.44;1739225;81;25434;-50
2023/03/04 00:14:23;;;;;;;38.42;17.07;;;;;;;-0.51;88.24;99937.54;1745826;80;27395;-49
2023/03/04 00:16:50;;;;;;;31.27;15.20;;;;;;;-0.48;88.26;99937.56;1754374;80;25756;-49
2023/03/04 00:19:16;;;;;;;41.70;16.30;;;;;;;-0.48;88.22;99934.38;1753961;80;27576;-50
2023/03/04 00:21:42;;;;;;;35.13;15.43;;;;;;;-0.48;88.22;99937.03;1745790;80;25484;-53
2023/03/04 00:24:09;;;;;;;32.75;15.55;;;;;;;-0.48;88.22;99937.03;1753327;81;25394;-50
2023/03/04 00:26:35;;;;;;;36.55;15.43;;;;;;;-0.46;88.17;99934.95;1786674;79;25444;-50
2023/03/04 00:29:01;;;;;;;31.45;14.40;;;;;;;-0.46;88.21;99919.01;1768706;80;25651;-51
2023/03/04 00:31:27;;;;;;;36.90;15.40;;;;;;;-0.45;88.19;99928.57;1780551;78;27812;-51
2023/03/04 00:33:54;;;;;;;39.35;14.68;;;;;;;-0.43;88.18;99927.80;1837413;77;25377;-51
2023/03/04 00:36:21;;;;;;;32.45;14.03;;;;;;;-0.43;88.16;99917.17;1819394;77;25407;-52
2023/03/04 00:38:47;;;;;;;31.45;14.73;;;;;;;-0.42;88.17;99913.47;1793591;77;27365;-53
2023/03/04 00:41:14;;;;;;;31.90;13.10;;;;;;;-0.41;88.08;99911.11;1805091;77;25566;-52
2023/03/04 00:43:40;;;;;;;35.55;15.45;;;;;;;-0.39;88.08;99910.33;1816443;77;27535;-50
2023/03/04 00:46:06;;;;;;;38.70;15.43;;;;;;;-0.38;88.12;99913.25;1830993;77;25486;-52
2023/03/04 00:48:33;;;;;;;41.45;15.72;;;;;;;-0.35;88.19;99905.86;1819234;77;25593;-52
2023/03/04 00:50:59;;;;;;;35.05;14.45;;;;;;;-0.35;88.15;99885.92;1828700;77;25611;-51
2023/03/04 00:53:25;;;;;;;33.25;14.05;;;;;;;-0.34;88.17;99911.44;1819524;77;25458;-52
2023/03/04 00:55:51;;;;;;;35.38;14.68;;;;;;;-0.34;88.10;99891.00;1824813;77;27640;-51
2023/03/04 00:58:18;;;;;;;33.70;13.83;;;;;;;-0.33;88.38;99892.59;1814825;77;30504;-53
2023/03/04 01:00:44;;;;;;;44.10;15.10;;;;;;;-0.31;88.18;99883.05;1824928;77;25634;-50
2023/03/04 01:03:10;;;;;;;38.98;14.60;;;;;;;-0.31;88.20;99866.56;1802443;77;25624;-50
2023/03/04 01:05:36;;;;;;;41.55;14.75;;;;;;;-0.32;88.06;99868.14;1827782;77;25559;-50
2023/03/04 01:08:04;;;;;;;40.73;15.30;;;;;;;-0.30;88.26;99864.19;1794063;77;27560;-50
2023/03/04 01:10:31;;;;;;;36.38;15.65;;;;;;;-0.29;88.04;99851.20;1828589;77;25461;-50
2023/03/04 01:12:58;;;;;;;37.38;15.15;;;;;;;-0.30;88.12;99846.92;1822212;77;25475;-49
2023/03/04 01:15:25;;;;;;;35.63;15.53;;;;;;;-0.29;88.08;99851.20;1823476;77;26063;-51
2023/03/04 01:17:52;;;;;;;45.35;17.50;;;;;;;-0.28;87.98;99840.03;1800149;78;25558;-50
2023/03/04 01:20:19;;;;;;;39.58;15.48;;;;;;;-0.28;88.05;99830.19;1780340;79;27477;-50
2023/03/04 01:22:45;;;;;;;45.70;16.82;;;;;;;-0.28;88.02;99816.91;1832674;77;25707;-50
2023/03/04 01:25:12;;;;;;;37.53;13.98;;;;;;;-0.26;88.00;99819.31;1829121;77;25728;-52
2023/03/04 01:27:38;;;;;;;42.67;15.43;;;;;;;-0.26;87.80;99817.98;1816983;77;27669;-51
2023/03/04 01:30:07;;;;;;;39.23;16.05;;;;;;;-0.26;87.72;99807.35;1817348;77;25466;-50
2023/03/04 01:32:33;;;;;;;43.05;15.65;;;;;;;-0.27;87.74;99793.80;1797722;78;27550;-50
2023/03/04 01:35:00;;;;;;;42.08;15.18;;;;;;;-0.27;87.58;99783.97;1824579;77;25639;-54
2023/03/04 01:37:26;;;;;;;37.88;13.83;;;;;;;-0.26;87.49;99775.45;1822382;77;25577;-51
2023/03/04 01:39:52;;;;;;;40.35;14.35;;;;;;;-0.27;87.31;99781.31;1818344;77;27679;-53
2023/03/04 01:42:25;;;;;;;34.50;14.28;;;;;;;-0.28;87.06;99755.77;1823012;77;25584;-50
2023/03/04 01:44:51;;;;;;;33.50;13.70;;;;;;;-0.29;86.98;99756.02;1829041;77;27453;-50
2023/03/04 01:47:21;;;;;;;35.35;14.43;;;;;;;-0.30;86.96;99752.56;1761934;81;25557;-50
2023/03/04 01:49:52;;;;;;;44.85;16.30;;;;;;;-0.31;86.93;99752.28;1760657;80;25400;-49
2023/03/04 01:52:19;;;;;;;45.28;16.30;;;;;;;-0.32;87.01;99753.34;1748515;81;26730;-50
2023/03/04 01:54:47;;;;;;;40.50;15.95;;;;;;;-0.31;87.17;99751.48;1754260;80;25574;-50
2023/03/04 01:57:23;;;;;;;47.85;17.73;;;;;;;-0.30;87.28;99745.12;1730750;80;28220;-50
2023/03/04 02:00:21;;;;;;;47.05;16.57;;;;;;;-0.30;87.58;99753.89;1765671;80;25917;-50
2023/03/04 02:02:55;;;;;;;47.43;17.23;;;;;;;-0.31;87.73;99732.88;1794803;77;25616;-50
2023/03/04 02:05:22;;;;;;;41.58;17.20;;;;;;;-0.31;87.71;99734.20;1835031;77;25604;-51
2023/03/04 02:07:50;;;;;;;46.65;16.27;;;;;;;-0.33;87.94;99738.98;1839995;77;25397;-52
2023/03/04 02:10:17;;;;;;;47.40;15.83;;;;;;;-0.34;87.84;99720.09;1742742;80;28032;-52
2023/03/04 02:12:44;;;;;;;45.28;16.65;;;;;;;-0.35;87.68;99720.63;1725150;80;25444;-52
2023/03/04 02:15:11;;;;;;;46.10;18.05;;;;;;;-0.35;87.57;99721.95;1848984;77;25389;-51
2023/03/04 02:17:39;;;;;;;50.67;17.48;;;;;;;-0.34;87.60;99720.09;1836476;77;25684;-51
2023/03/04 02:20:43;;;;;;;41.83;15.03;;;;;;;-0.33;87.66;99724.36;1830889;77;25391;-52
2023/03/04 02:23:45;;;;;;;38.45;15.20;;;;;;;-0.34;87.94;99713.44;1828844;77;29833;-51
2023/03/04 02:26:21;;;;;;;37.67;13.70;;;;;;;-0.34;87.90;99710.78;1820970;77;25791;-50
2023/03/04 02:28:51;;;;;;;36.83;15.80;;;;;;;-0.34;87.87;99709.45;1834103;77;25741;-50
2023/03/04 02:31:36;;;;;;;43.38;15.45;;;;;;;-0.35;87.98;99711.31;1826332;78;25688;-50
2023/03/04 02:34:08;;;;;;;39.92;16.20;;;;;;;-0.35;88.33;99711.31;1813593;77;25822;-51
2023/03/04 02:36:36;;;;;;;35.43;13.53;;;;;;;-0.33;88.21;99711.86;1813197;77;27501;-51
2023/03/04 02:39:08;;;;;;;34.33;14.75;;;;;;;-0.32;88.21;99721.45;1736317;81;25846;-51
2023/03/04 02:41:35;;;;;;;42.25;14.75;;;;;;;-0.31;88.34;99719.05;1823123;77;25766;-54
2023/03/04 02:44:03;;;;;;;35.80;13.40;;;;;;;-0.29;88.22;99724.95;1819912;77;25607;-53
2023/03/04 02:46:29;;;;;;;38.90;15.35;;;;;;;-0.28;88.37;99721.75;1840038;77;25540;-53
2023/03/04 02:48:56;;;;;;;34.40;13.70;;;;;;;-0.28;88.36;99713.24;1787277;77;27500;-50
2023/03/04 02:51:22;;;;;;;33.55;13.43;;;;;;;-0.27;88.29;99713.53;1814032;77;25550;-53
2023/03/04 02:53:49;;;;;;;40.88;14.68;;;;;;;-0.26;88.33;99704.48;1824359;77;25396;-50
2023/03/04 02:56:15;;;;;;;38.25;16.12;;;;;;;-0.23;88.34;99703.19;1824174;77;25534;-50
2023/03/04 02:58:41;;;;;;;41.68;15.58;;;;;;;-0.24;88.95;99697.09;1821148;77;25587;-50
2023/03/04 03:01:08;;;;;;;43.78;15.80;;;;;;;-0.24;88.86;99694.93;1758984;81;27480;-50
2023/03/04 03:03:35;;;;;;;42.35;15.53;;;;;;;-0.25;88.73;99702.11;1732470;80;26759;-50
2023/03/04 03:06:02;;;;;;;36.73;13.93;;;;;;;-0.24;89.13;99692.27;1752338;80;25456;-50
2023/03/04 03:08:28;;;;;;;41.42;16.27;;;;;;;-0.25;88.92;99686.16;1757292;80;25451;-50
2023/03/04 03:10:54;;;;;;;38.28;14.80;;;;;;;-0.24;89.24;99678.48;1752286;80;25779;-50
2023/03/04 03:13:21;;;;;;;40.63;14.87;;;;;;;-0.23;89.13;99688.58;1747870;80;27466;-52
2023/03/04 03:15:48;;;;;;;41.60;15.88;;;;;;;-0.21;89.48;99677.16;1769693;80;25479;-51
2023/03/04 03:18:14;;;;;;;39.42;16.05;;;;;;;-0.21;89.53;99683.80;1749877;80;25414;-51
2023/03/04 03:20:41;;;;;;;43.63;17.52;;;;;;;-0.20;89.46;99678.23;1762437;80;25694;-50
2023/03/04 03:23:07;;;;;;;40.28;16.45;;;;;;;-0.18;89.58;99681.18;1754417;80;25546;-53
2023/03/04 03:25:34;;;;;;;46.70;15.70;;;;;;;-0.17;89.59;99682.27;1752823;80;27252;-52
2023/03/04 03:28:00;;;;;;;40.98;15.48;;;;;;;-0.16;89.78;99673.75;1751037;81;25397;-50
2023/03/04 03:30:27;;;;;;;47.30;16.80;;;;;;;-0.16;89.68;99670.55;1822272;77;25396;-50
2023/03/04 03:32:53;;;;;;;45.60;16.02;;;;;;;-0.15;89.63;99666.85;1801049;79;25565;-50
2023/03/04 03:35:20;;;;;;;54.80;19.25;;;;;;;-0.12;89.62;99669.52;1816797;78;25375;-49
2023/03/04 03:37:47;;;;;;;42.50;17.82;;;;;;;-0.10;89.86;99666.89;1827452;77;27473;-50
2023/03/04 03:40:15;;;;;;;41.98;16.70;;;;;;;-0.08;89.65;99666.64;1791866;77;25933;-51
2023/03/04 03:42:41;;;;;;;50.83;19.30;;;;;;;-0.07;89.77;99642.97;1819502;77;25457;-50
2023/03/04 03:45:09;;;;;;;38.90;15.53;;;;;;;-0.05;89.78;99652.82;1821085;77;25571;-51
2023/03/04 03:47:36;;;;;;;39.83;16.85;;;;;;;-0.04;89.67;99653.90;1828173;77;25420;-50
2023/03/04 03:50:03;;;;;;;43.30;15.55;;;;;;;-0.02;89.80;99657.64;1816508;77;27323;-50
2023/03/04 03:52:29;;;;;;;35.00;16.15;;;;;;;0.01;89.65;99651.02;1835727;77;25432;-50
2023/03/04 03:54:56;;;;;;;43.73;16.62;;;;;;;0.01;89.59;99639.06;1826014;77;26167;-50
2023/03/04 03:57:24;;;;;;;40.67;16.25;;;;;;;0.03;89.57;99640.93;1827136;77;26251;-50
2023/03/04 03:59:50;;;;;;;48.13;18.90;;;;;;;0.04;89.95;99635.36;1827643;78;25569;-51
2023/03/04 04:02:16;;;;;;;37.88;16.30;;;;;;;0.06;89.57;99632.45;1826520;78;27488;-50
2023/03/04 04:04:43;;;;;;;42.10;18.10;;;;;;;0.08;89.48;99636.97;1746435;80;25638;-52
2023/03/04 04:07:09;;;;;;;43.30;15.72;;;;;;;0.10;89.39;99639.67;1763383;80;25512;-52
2023/03/04 04:09:36;;;;;;;40.78;17.90;;;;;;;0.13;89.35;99641.00;1819965;77;25662;-50
2023/03/04 04:12:05;;;;;;;41.55;16.67;;;;;;;0.14;89.45;99631.44;1821862;77;25379;-50
2023/03/04 04:14:32;;;;;;;;;;;;;;;0.17;89.42;99636.76;1777321;77;27487;-50
2023/03/04 04:16:59;;;;;;;41.02;15.10;;;;;;;0.19;89.46;99636.00;1834615;77;25558;-51
2023/03/04 04:19:25;;;;;;;50.30;16.73;;;;;;;0.20;89.39;99625.61;1839931;77;25648;-50
2023/03/04 04:21:52;;;;;;;43.83;20.08;;;;;;;0.22;89.33;99634.67;1817452;77;25738;-50
2023/03/04 04:24:19;;;;;;;36.03;16.67;;;;;;;0.23;89.32;99622.98;1831127;77;25434;-51
2023/03/04 04:26:45;;;;;;;44.50;19.12;;;;;;;0.26;89.25;99630.45;1823653;77;27371;-50
2023/03/04 04:29:13;;;;;;;44.27;18.37;;;;;;;0.27;89.19;99630.71;1816270;77;25575;-50
2023/03/04 04:31:40;;;;;;;41.98;19.45;;;;;;;0.28;89.15;99629.13;1793400;78;25581;-50
2023/03/04 04:34:07;;;;;;;44.20;18.37;;;;;;;0.29;89.15;99630.74;1825531;77;25550;-50
2023/03/04 04:36:34;;;;;;;44.30;19.02;;;;;;;0.32;89.06;99628.08;1818119;77;25506;-50
2023/03/04 04:39:00;;;;;;;40.40;17.85;;;;;;;0.33;89.08;99621.17;1832708;77;27417;-51
2023/03/04 04:41:37;;;;;;;46.63;19.35;;;;;;;0.34;89.01;99625.45;1817729;77;25834;-51
2023/03/04 04:44:04;;;;;;;47.78;37.20;;;;;;;0.34;88.94;99622.79;1796497;78;25457;-52
2023/03/04 04:46:30;;;;;;;46.48;32.80;;;;;;;0.36;88.98;99625.20;1837485;77;25584;-53
2023/03/04 04:48:57;;;;;;;35.98;16.17;;;;;;;0.38;88.86;99621.74;1739592;81;25773;-52
2023/03/04 04:51:23;;;;;;;32.75;16.97;;;;;;;0.40;88.89;99620.16;1727438;80;27692;-50
2023/03/04 04:53:49;;;;;;;44.03;21.48;;;;;;;0.40;88.81;99612.17;1825971;77;27526;-52
2023/03/04 04:56:20;;;;;;;39.60;18.98;;;;;;;0.42;88.75;99614.05;1820220;77;25817;-51
2023/03/04 04:58:48;;;;;;;41.45;22.30;;;;;;;0.43;88.70;99607.14;1834378;77;25778;-50
2023/03/04 05:01:16;;;;;;;34.45;17.73;;;;;;;0.43;88.64;99615.12;1812775;77;25756;-50
2023/03/04 05:03:42;;;;;;;43.38;20.35;;;;;;;0.44;88.59;99602.06;1839298;77;27420;-51
2023/03/04 05:06:11;;;;;;;38.25;17.45;;;;;;;0.45;88.63;99602.35;1827985;77;25450;-51
2023/03/04 05:08:38;;;;;;;41.95;18.70;;;;;;;0.47;88.51;99610.08;1724445;81;25378;-54
2023/03/04 05:11:06;;;;;;;51.53;20.85;;;;;;;0.47;88.46;99608.75;1770562;80;26051;-50
2023/03/04 05:13:33;;;;;;;42.60;18.98;;;;;;;0.49;88.37;99601.30;1772827;80;25618;-50
2023/03/04 05:16:01;;;;;;;38.65;20.25;;;;;;;0.49;88.32;99591.45;1769398;81;27477;-51
2023/03/04 05:18:28;;;;;;;40.40;28.55;;;;;;;0.50;88.26;99592.27;1769363;81;25563;-50
2023/03/04 05:20:58;;;;;;;45.15;25.08;;;;;;;0.51;88.21;99588.53;1769435;80;25374;-50
2023/03/04 05:23:27;;;;;;;45.80;32.55;;;;;;;0.53;88.14;99591.76;1769348;81;25518;-50
2023/03/04 05:25:54;;;;;;;41.42;30.75;;;;;;;0.53;88.09;99590.43;1769594;80;32804;-51
2023/03/04 05:28:20;;;;;;;48.95;41.80;;;;;;;0.55;88.02;99591.75;1768433;81;27319;-50
2023/03/04 05:30:47;;;;;;;48.98;43.85;;;;;;;0.57;88.00;99595.48;1784209;79;25437;-50
2023/03/04 05:33:16;;;;;;;63.65;57.03;;;;;;;0.57;87.92;99587.51;1734031;81;25843;-50
2023/03/04 05:35:45;;;;;;;55.03;44.60;;;;;;;0.58;87.87;99574.98;1761893;80;25543;-50
2023/03/04 05:38:15;;;;;;;32.17;15.53;;;;;;;0.60;87.83;99578.22;1747467;80;25646;-51
2023/03/04 05:40:42;;;;;;;47.48;32.98;;;;;;;0.61;87.79;99577.92;1746517;80;27186;-51
2023/03/04 05:43:09;;;;;;;64.37;57.70;;;;;;;0.61;87.82;99587.78;1739316;80;25498;-51
2023/03/04 05:45:37;;;;;;;79.20;71.87;;;;;;;0.63;87.81;99589.14;1784180;79;25796;-50
2023/03/04 05:48:04;;;;;;;65.17;58.87;;;;;;;0.64;87.79;99576.63;1783362;79;25476;-52
2023/03/04 05:50:32;;;;;;;60.28;53.90;;;;;;;0.65;87.77;99580.90;1766461;79;25429;-51
2023/03/04 05:52:59;;;;;;;35.83;16.67;;;;;;;0.65;87.76;99580.36;1777759;79;27598;-51
2023/03/04 05:55:27;;;;;;;34.75;21.80;;;;;;;0.66;87.79;99580.61;1788673;79;25682;-51
2023/03/04 05:57:54;;;;;;;38.35;18.35;;;;;;;0.67;87.74;99577.44;1795734;79;25774;-50
2023/03/04 06:00:21;;;;;;;36.83;19.82;;;;;;;0.68;87.78;99576.36;1761174;79;25625;-52
2023/03/04 06:02:47;;;;;;;40.65;27.80;;;;;;;0.68;87.81;99565.20;1786545;79;25856;-49
2023/03/04 06:05:15;;;;;;;45.12;40.43;;;;;;;0.68;87.81;99554.55;1762746;79;27337;-51
2023/03/04 06:07:43;;;;;;;54.80;48.80;;;;;;;0.69;87.94;99553.48;1795156;79;25539;-50
2023/03/04 06:10:14;;;;;;;40.43;19.48;;;;;;;0.72;87.81;99542.85;1782152;79;25513;-51
2023/03/04 06:12:41;;;;;;;36.48;16.35;;;;;;;0.73;87.90;99545.77;1772922;79;25573;-49
2023/03/04 06:15:10;;;;;;;38.70;17.82;;;;;;;0.73;87.83;99538.59;1766360;79;25445;-50
2023/03/04 06:17:39;;;;;;;36.45;16.62;;;;;;;0.77;87.76;99544.20;1779358;79;27466;-51
2023/03/04 06:20:08;;;;;;;38.23;18.77;;;;;;;0.79;87.66;99548.72;1778091;79;33143;-49
2023/03/04 06:22:34;;;;;;;36.10;19.32;;;;;;;0.81;87.63;99540.47;1777477;79;32667;-50
2023/03/04 06:25:01;;;;;;;38.67;15.85;;;;;;;0.84;87.56;99536.75;1781607;79;25740;-49
2023/03/04 06:27:28;;;;;;;35.85;15.68;;;;;;;0.84;87.50;99534.09;1783372;79;25619;-49
2023/03/04 06:29:54;;;;;;;34.83;15.80;;;;;;;0.87;87.43;99532.75;1757153;79;27471;-50
2023/03/04 06:32:21;;;;;;;35.10;15.75;;;;;;;0.89;87.25;99528.78;1793321;79;25570;-51
2023/03/04 06:34:47;;;;;;;34.78;17.40;;;;;;;0.91;87.19;99532.52;1798735;79;25573;-50
2023/03/04 06:37:14;;;;;;;40.90;31.93;;;;;;;0.92;87.19;99530.92;1780456;79;26211;-49
2023/03/04 06:39:41;;;;;;;70.95;63.80;;;;;;;0.94;87.08;99531.99;1772187;79;25434;-52
2023/03/04 06:42:07;;;;;;;76.30;69.07;;;;;;;0.97;87.11;99541.30;1770764;79;27530;-52
2023/03/04 06:44:35;;;;;;;89.75;81.92;;;;;;;0.98;87.05;99541.58;1782240;79;25879;-49
2023/03/04 06:47:01;;;;;;;60.95;55.38;;;;;;;0.99;86.97;99539.98;1721547;80;25518;-51
2023/03/04 06:49:28;;;;;;;59.63;53.90;;;;;;;1.01;86.90;99534.41;1795746;78;25586;-49
2023/03/04 06:51:54;;;;;;;83.05;75.62;;;;;;;1.02;86.92;99540.80;1821662;77;25350;-50
2023/03/04 06:54:21;;;;;;;87.05;79.45;;;;;;;1.03;86.94;99534.39;1818304;77;27180;-51
2023/03/04 06:56:47;;;;;;;94.65;86.37;;;;;;;1.05;86.88;99540.25;1820282;77;25865;-51
2023/03/04 06:59:15;;;;;;;73.40;66.67;;;;;;;1.05;86.91;99534.13;1820595;77;25842;-50
2023/03/04 07:01:42;;;;;;;69.70;63.35;;;;;;;1.08;86.71;99549.05;1757634;80;25492;-48
2023/03/04 07:04:08;;;;;;;70.57;63.35;;;;;;;1.07;86.74;99532.81;1760312;80;25464;-50
2023/03/04 07:06:35;;;;;;;71.42;64.65;;;;;;;1.09;86.73;99533.86;1783504;79;27456;-49
2023/03/04 07:09:01;;;;;;;87.35;80.03;;;;;;;1.09;86.60;99527.20;1786050;79;25788;-49
2023/03/04 07:11:27;;;;;;;92.05;84.00;;;;;;;1.10;86.65;99529.60;1788358;79;25531;-51
2023/03/04 07:13:54;;;;;;;94.13;85.97;;;;;;;1.11;86.70;99542.41;1732292;81;25759;-53
2023/03/04 07:16:22;;;;;;;92.00;84.30;;;;;;;1.14;86.69;99543.73;1757853;80;25605;-51
2023/03/04 07:18:49;;;;;;;94.97;86.85;;;;;;;1.15;86.60;99532.02;1778136;79;27506;-51
2023/03/04 07:21:17;;;;;;;91.57;83.62;;;;;;;1.16;86.65;99532.27;1762162;81;25570;-50
2023/03/04 07:23:44;;;;;;;82.33;74.62;;;;;;;1.17;86.58;99537.33;1748991;80;25697;-53
2023/03/04 07:26:11;;;;;;;82.72;75.62;;;;;;;1.19;86.45;99538.41;1738284;80;25543;-50
2023/03/04 07:28:38;;;;;;;65.57;59.45;;;;;;;1.18;86.52;99531.50;1765817;80;25598;-50
2023/03/04 07:31:29;;;;;;;64.77;58.92;;;;;;;1.21;86.53;99530.43;1756468;81;27604;-53
2023/03/04 07:34:04;;;;;;;30.68;14.03;;;;;;;1.23;86.51;99526.96;1764790;80;25440;-52
2023/03/04 07:36:32;;;;;;;24.55;13.03;;;;;;;1.25;86.39;99534.16;1753994;80;25440;-51
2023/03/04 07:38:58;;;;;;;30.02;13.60;;;;;;;1.27;86.40;99533.34;1752823;80;25461;-49
2023/03/04 07:41:27;;;;;;;28.25;13.83;;;;;;;1.29;86.27;99522.42;1746675;81;25543;-51
2023/03/04 07:43:56;;;;;;;22.65;10.55;;;;;;;1.30;86.21;99510.72;1764841;81;27540;-52
2023/03/04 07:46:24;;;;;;;20.50;10.13;;;;;;;1.31;86.17;99525.62;1742064;80;25801;-52
2023/03/04 07:48:51;;;;;;;34.10;15.38;;;;;;;1.33;86.22;99522.69;1747186;80;25636;-50
2023/03/04 07:51:24;;;;;;;32.90;16.05;;;;;;;1.36;85.88;99524.83;1746381;80;25595;-50
2023/03/04 07:54:00;;;;;;;30.95;14.05;;;;;;;1.36;85.79;99538.16;1751937;80;25518;-52
2023/03/04 07:56:33;;;;;;;26.17;12.82;;;;;;;1.34;85.55;99520.30;1749246;80;27467;-49
2023/03/04 07:59:04;;;;;;;25.45;13.32;;;;;;;1.36;85.73;99508.84;1764141;80;25869;-51
2023/03/04 08:01:36;;;;;;;28.40;12.73;;;;;;;1.36;85.80;99506.97;1791040;79;25556;-48
2023/03/04 08:04:07;;;;;;;25.30;12.35;;;;;;;1.40;85.84;99504.05;1821772;77;25604;-48
2023/03/04 08:06:35;;;;;;;24.47;12.50;;;;;;;1.44;85.66;99502.44;1821722;77;25364;-53
2023/03/04 08:09:07;;;;;;;25.10;12.50;;;;;;;1.45;85.20;99511.25;1839488;77;28233;-53
2023/03/04 08:11:37;;;;;;;87.85;79.70;;;;;;;1.46;85.43;99502.17;1725788;82;27011;-50
2023/03/04 08:14:11;;;;;;;89.58;81.65;;;;;;;1.47;85.50;99505.12;1715569;82;25961;-54
2023/03/04 08:16:37;;;;;;;91.63;83.60;;;;;;;1.59;85.08;99501.63;1707584;83;25889;-54
2023/03/04 08:19:09;;;;;;;91.87;83.65;;;;;;;1.59;85.08;99501.63;1717608;82;25394;-52
2023/03/04 08:21:38;;;;;;;92.63;84.67;;;;;;;1.57;85.01;99496.32;1799749;78;27573;-53
2023/03/04 08:24:10;;;;;;;87.87;79.97;;;;;;;1.59;84.83;99496.30;1796489;78;25875;-49
2023/03/04 08:26:44;;;;;;;25.43;11.38;;;;;;;1.65;84.68;99494.42;1804805;78;25744;-49
2023/03/04 08:29:16;;;;;;;25.62;11.33;;;;;;;1.64;84.53;99497.63;1791422;78;25554;-50
2023/03/04 08:31:48;;;;;;;28.27;12.25;;;;;;;1.65;84.54;99502.41;1794924;79;25802;-50
2023/03/04 08:34:20;;;;;;;26.33;13.22;;;;;;;1.67;84.44;99494.43;1794358;79;27542;-50
2023/03/04 08:36:47;;;;;;;30.25;13.28;;;;;;;1.68;84.72;99489.34;1779983;79;25443;-50
2023/03/04 08:39:20;;;;;;;25.82;11.90;;;;;;;1.68;84.25;99496.01;1799507;78;25452;-50
2023/03/04 08:41:50;;;;;;;24.27;12.35;;;;;;;1.68;84.16;99490.67;1781040;79;25662;-51
2023/03/04 08:44:16;;;;;;;22.80;11.55;;;;;;;1.67;83.73;99491.77;1787127;79;25473;-49
2023/03/04 08:46:44;;;;;;;23.02;11.20;;;;;;;1.68;83.77;99492.55;1785818;79;27380;-49
2023/03/04 08:49:14;;;;;;;24.20;10.08;;;;;;;1.70;83.96;99501.62;1797911;78;25451;-49
2023/03/04 08:51:44;;;;;;;53.38;48.30;;;;;;;1.68;83.74;99484.02;1811131;79;25475;-51
2023/03/04 08:54:11;;;;;;;86.40;79.10;;;;;;;1.67;83.67;99488.31;1803500;78;25601;-51
2023/03/04 08:56:42;;;;;;;87.97;80.13;;;;;;;1.68;83.83;99483.22;1771570;78;25510;-50
2023/03/04 08:59:15;;;;;;;25.68;11.00;;;;;;;1.70;83.73;99486.41;1793077;78;27333;-51
2023/03/04 09:01:41;;;;;;;26.33;12.70;;;;;;;1.76;83.80;99496.55;1806487;78;25756;-51
2023/03/04 09:04:07;;;;;;;25.95;10.95;;;;;;;1.78;83.55;99482.41;1784483;79;25830;-49
2023/03/04 09:06:34;;;;;;;23.62;16.02;;;;;;;1.79;83.10;99473.36;1783130;79;26211;-49
2023/03/04 09:09:07;;;;;;;34.43;18.73;;;;;;;1.77;83.23;99489.63;1787361;79;25567;-49
2023/03/04 09:11:34;;;;;;;31.60;26.30;;;;;;;1.79;83.25;99469.36;1781373;79;27531;-49
2023/03/04 09:14:00;;;;;;;27.45;11.55;;;;;;;1.80;83.37;99471.72;1759144;79;25784;-49
2023/03/04 09:16:29;;;;;;;22.98;10.88;;;;;;;1.82;83.10;99471.45;1793798;79;25541;-50
2023/03/04 09:18:55;;;;;;;;;;;;;;;1.87;83.47;99467.44;1801879;78;25750;-51
2023/03/04 09:21:27;;;;;;;22.07;10.98;;;;;;;1.96;83.64;99466.34;1777453;78;25477;-50
2023/03/04 09:23:55;;;;;;;24.02;11.55;;;;;;;2.04;83.40;99461.27;1786872;78;29725;-50
2023/03/04 09:26:26;;;;;;;30.50;12.30;;;;;;;2.13;83.88;99462.02;1699807;81;25864;-49
2023/03/04 09:29:00;;;;;;;57.80;52.62;;;;;;;2.21;83.80;99464.95;1727334;82;25638;-54
2023/03/04 09:31:33;;;;;;;92.50;84.97;;;;;;;2.26;83.25;99455.31;1734464;82;25444;-50
2023/03/04 09:34:02;;;;;;;91.57;83.52;;;;;;;2.28;82.61;99450.48;1716346;82;25849;-50
2023/03/04 09:36:31;;;;;;;90.03;82.10;;;;;;;2.27;82.42;99458.25;1714092;82;32995;-49
2023/03/04 09:39:08;;;;;;;91.37;83.52;;;;;;;2.27;82.74;99446.24;1715589;82;25919;-50
2023/03/04 09:41:51;;;;;;;88.65;81.35;;;;;;;2.30;82.10;99451.83;1724541;82;25425;-49
2023/03/04 09:44:38;;;;;;;92.08;83.82;;;;;;;2.30;82.62;99444.34;1792265;80;25505;-49
2023/03/04 09:47:18;;;;;;;90.38;81.90;;;;;;;2.33;82.19;99447.25;1778300;79;25714;-49
2023/03/04 09:50:03;;;;;;;89.80;82.42;;;;;;;2.31;81.86;99436.61;1787748;78;28216;-48
2023/03/04 09:53:06;;;;;;;90.28;82.60;;;;;;;2.29;82.05;99445.42;1725776;82;25623;-50
2023/03/04 09:55:46;;;;;;;93.05;85.20;;;;;;;2.23;82.07;99441.45;1712474;82;25479;-47
2023/03/04 09:58:48;;;;;;;82.55;75.90;;;;;;;2.22;82.26;99448.39;1730366;81;26409;-49
2023/03/04 10:01:28;;;;;;;90.23;82.87;;;;;;;2.19;82.10;99446.27;1718773;82;25830;-49
2023/03/04 10:06:24;;;;;;;44.53;39.50;;;;;;;2.19;82.32;99449.72;1924936;74;34658;-49
2023/03/04 10:09:12;;;;;;;25.05;11.20;;;;;;;2.07;82.43;99433.23;1889510;75;25423;-49
2023/03/04 10:11:51;;;;;;;70.08;63.17;;;;;;;2.09;82.61;99439.09;1809245;79;29530;-48
2023/03/04 10:14:31;;;;;;;66.22;58.83;;;;;;;2.05;82.53;99424.72;1785763;79;26091;-49
2023/03/04 10:17:17;;;;;;;85.60;78.42;;;;;;;2.02;82.61;99435.92;1778862;79;25533;-49
2023/03/04 10:20:14;;;;;;;79.15;72.20;;;;;;;1.99;82.91;99439.95;1807820;79;25421;-49
2023/03/04 10:22:46;;;;;;;91.45;83.92;;;;;;;1.99;83.00;99429.80;1806909;79;25524;-50
2023/03/04 10:25:31;;;;;;;23.80;11.30;;;;;;;1.95;83.12;99416.21;1809200;79;27884;-49
2023/03/04 10:28:16;;;;;;;29.77;11.40;;;;;;;1.96;83.27;99432.49;1808982;79;25784;-51
2023/03/04 10:31:09;;;;;;;24.80;11.05;;;;;;;1.95;83.44;99424.22;1808171;79;25445;-51
2023/03/04 10:33:42;;;;;;;36.77;29.37;;;;;;;1.97;83.82;99415.94;1809241;79;27301;-50
2023/03/04 10:36:17;;;;;;;89.03;81.35;;;;;;;1.96;83.99;99415.67;1809253;79;25394;-48
2023/03/04 10:38:47;;;;;;;91.02;83.47;;;;;;;1.95;84.10;99423.42;1808240;79;27363;-50
2023/03/04 10:41:23;;;;;;;88.90;81.00;;;;;;;1.94;84.82;99411.15;1809157;79;25326;-48
2023/03/04 10:44:13;;;;;;;88.13;80.77;;;;;;;1.93;84.83;99390.36;1809192;79;25497;-53
2023/03/04 10:46:46;;;;;;;60.15;55.38;;;;;;;1.92;84.69;99402.08;1820137;75;27300;-49
2023/03/04 10:49:18;;;;;;;80.60;73.23;;;;;;;1.92;85.06;99402.62;1894830;75;25507;-49
2023/03/04 10:52:03;;;;;;;87.37;79.97;;;;;;;1.89;85.92;99379.98;1859603;77;28320;-52
2023/03/04 10:54:50;;;;;;;89.17;81.60;;;;;;;1.89;85.89;99388.50;1789654;80;25645;-52
2023/03/04 10:57:43;;;;;;;85.63;78.70;;;;;;;1.89;86.31;99393.83;1788328;80;25462;-54
2023/03/04 11:00:30;;;;;;;89.10;81.55;;;;;;;1.88;86.82;99389.59;1789465;80;25513;-53
2023/03/04 11:03:23;;;;;;;86.17;79.20;;;;;;;1.89;86.68;99384.50;1821237;78;25548;-51
2023/03/04 11:07:23;;;;;;;27.50;12.07;;;;;;;2.02;87.19;99387.91;1925026;74;34693;-53
2023/03/04 11:09:55;;;;;;;31.52;11.38;;;;;;;1.93;87.28;99405.57;1894938;75;25598;-52
2023/03/04 11:12:26;;;;;;;23.80;11.15;;;;;;;1.89;87.56;99389.31;1894847;75;27505;-52
2023/03/04 11:15:07;;;;;;;32.50;11.43;;;;;;;1.88;87.58;99394.92;1892556;75;25534;-54
2023/03/04 11:17:48;;;;;;;25.65;11.22;;;;;;;1.88;87.67;99389.05;1816744;78;25523;-52
2023/03/04 11:20:41;;;;;;;24.57;10.45;;;;;;;1.88;88.06;99390.92;1822139;78;25404;-52
2023/03/04 11:23:40;;;;;;;22.13;10.63;;;;;;;1.84;88.44;99384.80;1822239;78;25631;-52
2023/03/04 11:26:18;;;;;;;23.42;11.73;;;;;;;1.84;89.00;99374.67;1822272;78;27509;-51
2023/03/04 11:29:15;;;;;;;25.10;11.55;;;;;;;1.84;88.63;99380.80;1822123;78;25561;-50
2023/03/04 11:32:09;;;;;;;33.83;12.55;;;;;;;1.88;88.69;99381.59;1822222;78;25443;-51
2023/03/04 11:34:56;;;;;;;26.65;11.75;;;;;;;1.89;88.93;99376.50;1822088;78;25511;-51
2023/03/04 11:37:55;;;;;;;25.05;11.75;;;;;;;1.87;89.16;99375.44;1822154;78;25471;-51
2023/03/04 11:40:42;;;;;;;26.77;12.00;;;;;;;1.87;89.48;99370.10;1821562;78;27504;-50
2023/03/04 11:43:28;;;;;;;22.35;11.03;;;;;;;1.84;89.27;99365.34;1821977;78;25592;-48
2023/03/04 11:46:04;;;;;;;24.72;11.35;;;;;;;1.84;89.45;99358.67;1822052;78;25498;-49